Time,TemperatureF,DewpointF,PressureIn,WindDirection,WindDirectionDegrees,WindSpeedMPH,WindSpeedGustMPH,Humidity,HourlyPrecipIn,Conditions,Clouds,dailyrainin,SoftwareType,DateUTC
2013-07-23 00:00:00,56.2,43.0,29.63,WSW,254,0.0,0.0,61,0.00,,---,0.00,VWS V14.01,2013-07-23 06:00:00,
2013-07-23 00:10:00,54.2,42.7,29.66,WSW,253,0.0,1.0,65,0.00,,---,0.00,VWS V14.01,2013-07-23 06:10:00,
2013-07-23 00:20:00,53.8,43.1,29.66,WSW,254,0.0,0.0,67,0.00,,---,0.00,VWS V14.01,2013-07-23 06:20:00,
2013-07-23 00:30:00,54.2,42.7,29.66,WSW,253,0.0,0.0,65,0.00,,---,0.00,VWS V14.01,2013-07-23 06:30:00,
2013-07-23 00:40:00,55.4,41.8,29.64,WSW,254,0.0,0.0,60,0.00,,---,0.00,VWS V14.01,2013-07-23 06:40:00,
2013-07-23 00:50:00,55.4,43.0,29.64,WSW,253,0.0,1.0,63,0.00,,---,0.00,VWS V14.01,2013-07-23 06:50:00,
2013-07-23 01:00:00,53.9,42.8,29.66,WSW,254,0.0,0.0,66,0.00,,---,0.00,VWS V14.01,2013-07-23 07:00:00,
2013-07-23 01:10:00,53.1,41.7,29.67,WSW,253,0.0,0.0,65,0.00,,---,0.00,VWS V14.01,2013-07-23 07:10:00,
2013-07-23 01:20:00,53.9,40.8,29.67,WSW,254,0.0,0.0,61,0.00,,---,0.00,VWS V14.01,2013-07-23 07:20:00,
2013-07-23 01:30:00,54.6,42.3,29.65,WSW,254,0.0,0.0,63,0.00,,---,0.00,VWS V14.01,2013-07-23 07:30:00,
2013-07-23 01:40:00,54.0,42.1,29.67,WSW,254,0.0,0.0,64,0.00,,---,0.00,VWS V14.01,2013-07-23 07:40:00,
2013-07-23 01:50:00,53.3,40.6,29.66,WSW,254,0.0,0.0,62,0.00,,---,0.00,VWS V14.01,2013-07-23 07:50:00,
2013-07-23 02:00:00,54.0,40.0,29.67,WSW,253,0.0,0.0,59,0.00,,---,0.00,VWS V14.01,2013-07-23 08:00:00,
2013-07-23 02:10:00,54.3,40.3,29.65,WSW,254,0.0,0.0,59,0.00,,---,0.00,VWS V14.01,2013-07-23 08:10:00,
2013-07-23 02:20:00,53.9,40.8,29.65,WSW,253,0.0,0.0,61,0.00,,---,0.00,VWS V14.01,2013-07-23 08:20:00,
2013-07-23 02:30:00,53.7,39.7,29.66,WSW,254,0.0,0.0,59,0.00,,---,0.00,VWS V14.01,2013-07-23 08:30:00,
2013-07-23 02:40:00,52.8,40.2,29.65,WSW,253,0.0,4.0,62,0.00,,---,0.00,VWS V14.01,2013-07-23 08:40:00,
2013-07-23 02:50:00,52.1,39.9,29.67,WSW,254,0.0,4.0,63,0.00,,---,0.00,VWS V14.01,2013-07-23 08:50:00,
2013-07-23 03:00:00,51.6,38.6,29.67,WSW,253,0.0,4.0,61,0.00,,---,0.00,VWS V14.01,2013-07-23 09:00:00,
2013-07-23 03:10:00,51.1,38.1,29.67,WSW,254,0.0,1.0,61,0.00,,---,0.00,VWS V14.01,2013-07-23 09:10:00,
2013-07-23 03:20:00,52.0,38.6,29.65,WSW,254,0.0,2.0,60,0.00,,---,0.00,VWS V14.01,2013-07-23 09:20:00,
2013-07-23 03:30:00,51.0,38.9,29.67,WSW,254,0.0,0.0,63,0.00,,---,0.00,VWS V14.01,2013-07-23 09:30:00,
2013-07-23 03:40:00,51.0,36.3,29.66,WSW,257,3.0,4.0,57,0.00,,---,0.00,VWS V14.01,2013-07-23 09:40:00,
2013-07-23 03:50:00,50.6,34.6,29.67,North,349,7.0,11.0,54,0.00,,---,0.00,VWS V14.01,2013-07-23 09:50:00,
2013-07-23 04:00:00,51.3,33.8,29.67,North,355,11.0,12.0,51,0.00,,---,0.00,VWS V14.01,2013-07-23 10:00:00,
2013-07-23 04:10:00,50.5,36.3,29.66,North,350,4.0,12.0,58,0.00,,---,0.00,VWS V14.01,2013-07-23 10:10:00,
2013-07-23 04:20:00,51.0,36.8,29.66,North,350,0.0,6.0,58,0.00,,---,0.00,VWS V14.01,2013-07-23 10:20:00,
2013-07-23 04:30:00,50.2,36.0,29.68,North,350,2.0,6.0,58,0.00,,---,0.00,VWS V14.01,2013-07-23 10:30:00,
2013-07-23 04:40:00,50.0,34.5,29.68,North,350,0.0,5.0,55,0.00,,---,0.00,VWS V14.01,2013-07-23 10:40:00,
2013-07-23 04:50:00,49.6,35.5,29.68,North,350,0.0,0.0,58,0.00,,---,0.00,VWS V14.01,2013-07-23 10:50:00,
2013-07-23 05:00:00,49.9,35.7,29.68,North,350,4.0,5.0,58,0.00,,---,0.00,VWS V14.01,2013-07-23 11:00:00,
2013-07-23 05:10:00,50.0,35.4,29.68,North,350,0.0,4.0,57,0.00,,---,0.00,VWS V14.01,2013-07-23 11:10:00,
2013-07-23 05:20:00,49.7,36.0,29.68,North,350,0.0,0.0,59,0.00,,---,0.00,VWS V14.01,2013-07-23 11:20:00,
2013-07-23 05:30:00,48.8,36.8,29.69,North,350,0.0,3.0,63,0.00,,---,0.00,VWS V14.01,2013-07-23 11:30:00,
2013-07-23 05:40:00,47.8,37.4,29.69,North,350,0.0,0.0,67,0.00,,---,0.00,VWS V14.01,2013-07-23 11:40:00,
2013-07-23 05:50:00,46.6,37.3,29.71,North,350,0.0,0.0,70,0.00,,---,0.00,VWS V14.01,2013-07-23 11:50:00,
2013-07-23 06:00:00,46.9,35.4,29.71,North,350,0.0,0.0,64,0.00,,---,0.00,VWS V14.01,2013-07-23 12:00:00,
2013-07-23 06:10:00,47.7,36.9,29.74,North,350,0.0,0.0,66,0.00,,---,0.00,VWS V14.01,2013-07-23 12:10:00,
2013-07-23 06:20:00,47.6,36.4,29.75,North,350,0.0,0.0,65,0.00,,---,0.00,VWS V14.01,2013-07-23 12:20:00,
2013-07-23 06:30:00,48.9,35.6,29.74,North,350,0.0,0.0,60,0.00,,---,0.00,VWS V14.01,2013-07-23 12:30:00,
2013-07-23 06:40:00,50.0,38.3,29.74,North,350,0.0,0.0,64,0.00,,---,0.00,VWS V14.01,2013-07-23 12:40:00,
2013-07-23 06:50:00,50.5,38.4,29.74,North,349,3.0,5.0,63,0.00,,---,0.00,VWS V14.01,2013-07-23 12:50:00,
2013-07-23 07:00:00,52.7,39.2,29.73,North,349,0.0,4.0,60,0.00,,---,0.00,VWS V14.01,2013-07-23 13:00:00,
2013-07-23 07:10:00,54.4,35.7,29.74,North,355,4.0,6.0,49,0.00,,---,0.00,VWS V14.01,2013-07-23 13:10:00,
2013-07-23 07:20:00,54.7,35.9,29.72,NNW,338,4.0,7.0,49,0.00,,---,0.00,VWS V14.01,2013-07-23 13:20:00,
2013-07-23 07:30:00,56.2,36.3,29.72,NNW,338,0.0,6.0,47,0.00,,---,0.00,VWS V14.01,2013-07-23 13:30:00,
2013-07-23 07:40:00,58.4,37.7,29.70,NNW,338,5.0,5.0,46,0.00,,---,0.00,VWS V14.01,2013-07-23 13:40:00,
2013-07-23 07:50:00,60.0,37.5,29.69,NNW,338,5.0,8.0,43,0.00,,---,0.00,VWS V14.01,2013-07-23 13:50:00,
2013-07-23 08:00:00,62.1,36.9,29.68,North,351,7.0,11.0,39,0.00,,---,0.00,VWS V14.01,2013-07-23 14:00:00,
2013-07-23 08:10:00,62.1,36.9,29.73,North,350,6.0,12.0,39,0.00,,---,0.00,VWS V14.01,2013-07-23 14:10:00,
2013-07-23 08:20:00,63.3,37.3,29.71,NNW,348,7.0,11.0,38,0.00,,---,0.00,VWS V14.01,2013-07-23 14:20:00,
2013-07-23 08:30:00,63.6,37.5,29.71,North,11,4.0,10.0,38,0.00,,---,0.00,VWS V14.01,2013-07-23 14:30:00,
2013-07-23 08:40:00,64.5,37.7,29.71,North,5,3.0,7.0,37,0.00,,---,0.00,VWS V14.01,2013-07-23 14:40:00,
2013-07-23 08:50:00,65.6,37.2,29.70,North,360,3.0,6.0,35,0.00,,---,0.00,VWS V14.01,2013-07-23 14:50:00,
2013-07-23 09:00:00,66.7,38.2,29.68,WNW,299,0.0,4.0,35,0.00,,---,0.00,VWS V14.01,2013-07-23 15:00:00,
2013-07-23 09:10:00,69.1,40.3,29.70,WNW,299,2.0,3.0,35,0.00,,---,0.00,VWS V14.01,2013-07-23 15:10:00,
2013-07-23 09:20:00,70.2,38.2,29.68,WNW,299,3.0,5.0,31,0.00,,---,0.00,VWS V14.01,2013-07-23 15:20:00,
2013-07-23 09:30:00,71.2,38.2,29.68,NW,313,0.0,5.0,30,0.00,,---,0.00,VWS V14.01,2013-07-23 15:30:00,
2013-07-23 09:40:00,71.6,38.6,29.66,North,360,3.0,3.0,30,0.00,,---,0.00,VWS V14.01,2013-07-23 15:40:00,
2013-07-23 09:50:00,72.1,38.1,29.66,North,360,0.0,3.0,29,0.00,,---,0.00,VWS V14.01,2013-07-23 15:50:00,
2013-07-23 10:00:00,73.2,39.9,29.67,North,360,0.0,1.0,30,0.00,,---,0.00,VWS V14.01,2013-07-23 16:00:00,
2013-07-23 10:10:00,73.1,43.1,29.67,North,360,0.0,0.0,34,0.00,,---,0.00,VWS V14.01,2013-07-23 16:10:00,
2013-07-23 10:20:00,73.6,41.1,29.66,SSE,159,6.0,7.0,31,0.00,,---,0.00,VWS V14.01,2013-07-23 16:20:00,
2013-07-23 10:30:00,74.1,41.6,29.66,SSE,157,3.0,9.0,31,0.00,,---,0.00,VWS V14.01,2013-07-23 16:30:00,
2013-07-23 10:40:00,74.9,39.6,29.65,SSE,148,9.0,11.0,28,0.00,,---,0.00,VWS V14.01,2013-07-23 16:40:00,
2013-07-23 10:50:00,75.3,38.1,29.65,South,175,4.0,10.0,26,0.00,,---,0.00,VWS V14.01,2013-07-23 16:50:00,
2013-07-23 11:00:00,76.0,39.6,29.65,SE,137,7.0,10.0,27,0.00,,---,0.00,VWS V14.01,2013-07-23 17:00:00,
2013-07-23 11:10:00,76.6,38.2,29.66,SSE,153,3.0,10.0,25,0.00,,---,0.00,VWS V14.01,2013-07-23 17:10:00,
2013-07-23 11:20:00,76.9,37.4,29.66,South,190,3.0,9.0,24,0.00,,---,0.00,VWS V14.01,2013-07-23 17:20:00,
2013-07-23 11:30:00,77.7,39.1,29.64,ESE,121,6.0,12.0,25,0.00,,---,0.00,VWS V14.01,2013-07-23 17:30:00,
2013-07-23 11:40:00,78.3,36.4,29.63,SSE,163,7.0,15.0,22,0.00,,---,0.00,VWS V14.01,2013-07-23 17:40:00,
2013-07-23 11:50:00,79.3,38.3,29.64,SSW,210,10.0,15.0,23,0.00,,---,0.00,VWS V14.01,2013-07-23 17:50:00,
2013-07-23 12:00:00,79.7,31.1,29.62,SW,229,6.0,21.0,17,0.00,,---,0.00,VWS V14.01,2013-07-23 18:00:00,
2013-07-23 12:10:00,80.4,33.1,29.63,South,178,9.0,12.0,18,0.00,,---,0.00,VWS V14.01,2013-07-23 18:10:00,
2013-07-23 12:20:00,80.3,31.6,29.63,SSW,202,7.0,12.0,17,0.00,,---,0.00,VWS V14.01,2013-07-23 18:20:00,
2013-07-23 12:30:00,81.5,35.3,29.62,SSE,159,8.0,15.0,19,0.00,,---,0.00,VWS V14.01,2013-07-23 18:30:00,
2013-07-23 12:40:00,81.4,32.5,29.62,SSW,201,0.0,10.0,17,0.00,,---,0.00,VWS V14.01,2013-07-23 18:40:00,
2013-07-23 12:50:00,82.4,30.2,29.61,North,355,3.0,7.0,15,0.00,,---,0.00,VWS V14.01,2013-07-23 18:50:00,
2013-07-23 13:00:00,81.6,35.4,29.60,ESE,103,0.0,12.0,19,0.00,,---,0.00,VWS V14.01,2013-07-23 19:00:00,
2013-07-23 13:10:00,81.8,36.8,29.60,ESE,118,0.0,6.0,20,0.00,,---,0.00,VWS V14.01,2013-07-23 19:10:00,
2013-07-23 13:20:00,82.0,37.0,29.59,South,180,9.0,10.0,20,0.00,,---,0.00,VWS V14.01,2013-07-23 19:20:00,
2013-07-23 13:30:00,82.3,33.2,29.59,South,178,4.0,17.0,17,0.00,,---,0.00,VWS V14.01,2013-07-23 19:30:00,
2013-07-23 13:40:00,83.0,37.8,29.58,SSE,151,5.0,16.0,20,0.00,,---,0.00,VWS V14.01,2013-07-23 19:40:00,
2013-07-23 13:50:00,83.7,34.3,29.57,South,179,4.0,10.0,17,0.00,,---,0.00,VWS V14.01,2013-07-23 19:50:00,
2013-07-23 14:00:00,83.2,32.4,29.58,SSE,152,0.0,11.0,16,0.00,,---,0.00,VWS V14.01,2013-07-23 20:00:00,
2013-07-23 14:10:00,83.3,32.5,29.59,SE,140,0.0,7.0,16,0.00,,---,0.00,VWS V14.01,2013-07-23 20:10:00,
2013-07-23 14:20:00,83.9,34.5,29.57,SSE,157,6.0,10.0,17,0.00,,---,0.00,VWS V14.01,2013-07-23 20:20:00,
2013-07-23 14:30:00,83.5,32.6,29.57,ESE,119,3.0,12.0,16,0.00,,---,0.00,VWS V14.01,2013-07-23 20:30:00,
2013-07-23 14:40:00,83.1,33.8,29.59,ESE,102,5.0,17.0,17,0.00,,---,0.00,VWS V14.01,2013-07-23 20:40:00,
2013-07-23 14:50:00,83.9,29.6,29.57,SE,139,2.0,10.0,14,0.00,,---,0.00,VWS V14.01,2013-07-23 20:50:00,
2013-07-23 15:00:00,84.4,33.3,29.57,East,91,9.0,11.0,16,0.00,,---,0.00,VWS V14.01,2013-07-23 21:00:00,
2013-07-23 15:10:00,84.2,34.7,29.58,SE,139,4.0,9.0,17,0.00,,---,0.00,VWS V14.01,2013-07-23 21:10:00,
2013-07-23 15:20:00,83.4,32.5,29.58,East,87,0.0,9.0,16,0.00,,---,0.00,VWS V14.01,2013-07-23 21:20:00,
2013-07-23 15:30:00,83.8,32.9,29.57,East,87,0.0,2.0,16,0.00,,---,0.00,VWS V14.01,2013-07-23 21:30:00,
2013-07-23 15:40:00,82.6,33.4,29.58,East,101,3.0,6.0,17,0.00,,---,0.00,VWS V14.01,2013-07-23 21:40:00,
2013-07-23 15:50:00,82.3,34.6,29.59,SSW,192,0.0,11.0,18,0.00,,---,0.00,VWS V14.01,2013-07-23 21:50:00,
2013-07-23 16:00:00,83.4,36.9,29.57,South,182,0.0,7.0,19,0.00,,---,0.00,VWS V14.01,2013-07-23 22:00:00,
2013-07-23 16:10:00,83.4,32.5,29.58,SE,142,0.0,9.0,16,0.00,,---,0.00,VWS V14.01,2013-07-23 22:10:00,
2013-07-23 16:20:00,82.3,33.2,29.58,SE,126,0.0,9.0,17,0.00,,---,0.00,VWS V14.01,2013-07-23 22:20:00,
2013-07-23 16:30:00,82.9,32.2,29.58,SE,126,0.0,0.0,16,0.00,,---,0.00,VWS V14.01,2013-07-23 22:30:00,
2013-07-23 16:40:00,83.4,38.2,29.57,SE,126,0.0,0.0,20,0.00,,---,0.00,VWS V14.01,2013-07-23 22:40:00,
2013-07-23 16:50:00,81.5,35.3,29.59,East,84,0.0,8.0,19,0.00,,---,0.00,VWS V14.01,2013-07-23 22:50:00,
2013-07-23 17:00:00,81.2,36.4,29.61,ENE,65,0.0,15.0,20,0.00,,---,0.00,VWS V14.01,2013-07-23 23:00:00,
2013-07-23 17:10:00,81.2,33.7,29.62,East,96,4.0,9.0,18,0.00,,---,0.00,VWS V14.01,2013-07-23 23:10:00,
2013-07-23 17:20:00,80.8,33.4,29.62,ESE,108,6.0,9.0,18,0.00,,---,0.00,VWS V14.01,2013-07-23 23:20:00,
2013-07-23 17:30:00,80.5,34.5,29.63,ESE,109,10.0,14.0,19,0.00,,---,0.00,VWS V14.01,2013-07-23 23:30:00,
2013-07-23 17:40:00,79.6,33.8,29.65,East,101,7.0,18.0,19,0.00,,---,0.00,VWS V14.01,2013-07-23 23:40:00,
2013-07-23 17:50:00,78.8,34.4,29.65,SE,128,4.0,14.0,20,0.00,,---,0.00,VWS V14.01,2013-07-23 23:50:00,
2013-07-23 18:00:00,78.0,33.7,29.67,ESE,119,11.0,18.0,20,0.00,,---,0.00,VWS V14.01,2013-07-24 00:00:00,
2013-07-23 18:10:00,77.4,33.2,29.62,SE,136,5.0,15.0,20,0.00,,---,0.00,VWS V14.01,2013-07-24 00:10:00,
2013-07-23 18:20:00,77.4,32.0,29.62,SE,126,0.0,14.0,19,0.00,,---,0.00,VWS V14.01,2013-07-24 00:20:00,
2013-07-23 18:30:00,77.4,34.4,29.62,SSE,163,0.0,10.0,21,0.00,,---,0.00,VWS V14.01,2013-07-24 00:30:00,
2013-07-23 18:40:00,77.1,33.0,29.62,SSW,202,8.0,12.0,20,0.00,,---,0.00,VWS V14.01,2013-07-24 00:40:00,
2013-07-23 18:50:00,76.8,35.1,29.61,South,175,4.0,11.0,22,0.00,,---,0.00,VWS V14.01,2013-07-24 00:50:00,
2013-07-23 19:00:00,76.2,35.7,29.63,SW,215,5.0,15.0,23,0.00,,---,0.00,VWS V14.01,2013-07-24 01:00:00,
2013-07-23 19:10:00,76.3,35.8,29.56,SW,229,3.0,11.0,23,0.00,,---,0.00,VWS V14.01,2013-07-24 01:10:00,
2013-07-23 19:20:00,76.0,35.6,29.56,SW,227,5.0,6.0,23,0.00,,---,0.00,VWS V14.01,2013-07-24 01:20:00,
2013-07-23 19:30:00,75.8,35.4,29.56,SW,219,0.0,8.0,23,0.00,,---,0.00,VWS V14.01,2013-07-24 01:30:00,
2013-07-23 19:40:00,75.7,34.2,29.57,SW,219,0.0,0.0,22,0.00,,---,0.00,VWS V14.01,2013-07-24 01:40:00,
2013-07-23 19:50:00,75.3,35.0,29.59,SW,219,0.0,4.0,23,0.00,,---,0.00,VWS V14.01,2013-07-24 01:50:00,
2013-07-23 20:00:00,75.6,34.1,29.59,SSE,154,6.0,11.0,22,0.00,,---,0.00,VWS V14.01,2013-07-24 02:00:00,
2013-07-23 20:10:00,74.5,35.4,29.56,SSE,150,5.0,12.0,24,0.00,,---,0.00,VWS V14.01,2013-07-24 02:10:00,
2013-07-23 20:20:00,73.8,34.8,29.58,SSE,155,4.0,7.0,24,0.00,,---,0.00,VWS V14.01,2013-07-24 02:20:00,
2013-07-23 20:30:00,73.5,35.6,29.59,SE,145,0.0,5.0,25,0.00,,---,0.00,VWS V14.01,2013-07-24 02:30:00,
2013-07-23 20:40:00,73.0,35.1,29.59,SE,144,0.0,0.0,25,0.00,,---,0.00,VWS V14.01,2013-07-24 02:40:00,
2013-07-23 20:50:00,72.8,35.0,29.60,ESE,115,1.0,3.0,25,0.00,,---,0.00,VWS V14.01,2013-07-24 02:50:00,
2013-07-23 21:00:00,72.2,35.4,29.61,ESE,116,0.0,4.0,26,0.00,,---,0.00,VWS V14.01,2013-07-24 03:00:00,
2013-07-23 21:10:00,71.1,35.5,29.58,ESE,115,0.0,3.0,27,0.00,,---,0.00,VWS V14.01,2013-07-24 03:10:00,
2013-07-23 21:20:00,70.4,36.7,29.58,ESE,116,0.0,0.0,29,0.00,,---,0.00,VWS V14.01,2013-07-24 03:20:00,
2013-07-23 21:30:00,68.6,36.8,29.60,SE,138,0.0,0.0,31,0.00,,---,0.00,VWS V14.01,2013-07-24 03:30:00,
2013-07-23 21:40:00,67.9,36.2,29.62,SE,138,0.0,0.0,31,0.00,,---,0.00,VWS V14.01,2013-07-24 03:40:00,
2013-07-23 21:50:00,66.9,37.7,29.62,SE,142,0.0,0.0,34,0.00,,---,0.00,VWS V14.01,2013-07-24 03:50:00,
2013-07-23 22:00:00,65.9,36.8,29.64,SE,145,0.0,0.0,34,0.00,,---,0.00,VWS V14.01,2013-07-24 04:00:00,
2013-07-23 22:10:00,66.2,37.0,29.62,SE,146,0.0,0.0,34,0.00,,---,0.00,VWS V14.01,2013-07-24 04:10:00,
2013-07-23 22:20:00,66.1,39.1,29.63,SE,146,0.0,0.0,37,0.00,,---,0.00,VWS V14.01,2013-07-24 04:20:00,
2013-07-23 22:30:00,66.5,38.0,29.63,SE,146,0.0,0.0,35,0.00,,---,0.00,VWS V14.01,2013-07-24 04:30:00,
2013-07-23 22:40:00,65.7,38.0,29.63,SE,145,0.0,0.0,36,0.00,,---,0.00,VWS V14.01,2013-07-24 04:40:00,
2013-07-23 22:50:00,64.9,38.7,29.65,SE,146,0.0,0.0,38,0.00,,---,0.00,VWS V14.01,2013-07-24 04:50:00,
2013-07-23 23:00:00,65.8,40.2,29.63,SE,145,2.0,3.0,39,0.00,,---,0.00,VWS V14.01,2013-07-24 05:00:00,
2013-07-23 23:10:00,66.1,40.5,29.60,SE,146,0.0,3.0,39,0.00,,---,0.00,VWS V14.01,2013-07-24 05:10:00,
2013-07-23 23:20:00,65.3,40.4,29.61,SE,145,0.0,3.0,40,0.00,,---,0.00,VWS V14.01,2013-07-24 05:20:00,
2013-07-23 23:30:00,64.9,40.0,29.62,WSW,252,0.0,5.0,40,0.00,,---,0.00,VWS V14.01,2013-07-24 05:30:00,
2013-07-23 23:40:00,64.6,40.4,29.61,WSW,252,0.0,0.0,41,0.00,,---,0.00,VWS V14.01,2013-07-24 05:40:00,
2013-07-23 23:50:00,63.4,41.7,29.62,WSW,252,0.0,0.0,45,0.00,,---,0.00,VWS V14.01,2013-07-24 05:50:00,